Malta Bend, Missouri
Current Conditions -  °F | °C
As of 9:35 PM on Wednesday 26 Nov 2014 (Local Time) from KMHL Reporting Station
Haze Haze  
Wind Chill: 24°   Ceiling: 1000
Heat Index: 34°   Visibility: 5mi
Dew Point: 32°   Wind: 15mph
Humidity: 93%   Direction: 320°NW
Pressure: 30.25"   Gusts: 23mph
Location:  39.19°N, 93.36°W
Report Text: KMHL 270335Z AUTO 32013G20KT 5SM BR OVC010 01/00 A3025 RMK AO2
Loading
Personal Weather Stations






























Interactive Weather Map New forecast layout! Learn more

10-Day Weather Forecast

Advertisements
Track Severe Weather on mobile